Home > Products > Valid Products > TAF

000
FTUS45 KGGW 201700
TAFGGW
TAF
KGGW 201730Z 2018/2118 31015KT P6SM SCT200
     FM210300 VRB06KT P6SM SKC=



000
FTUS45 KGGW 201700
TAFSDY
TAF
KSDY 201730Z 2018/2118 31015KT P6SM BKN200
     FM210300 31007KT P6SM SKC
      AMD LTD TO CLD VIS AND WIND=



000
FTUS45 KGGW 201700
TAFOLF
TAF
KOLF 201730Z 2018/2118 31018G27KT P6SM SCT200
     FM210300 VRB05KT P6SM SKC=



000
FTUS45 KGGW 201700
TAFGDV
TAF
KGDV 201730Z 2018/2118 31014KT P6SM SCT200
     FM210300 31008KT P6SM SKC
      AMD NOT SKED=



000
FTUS45 KGGW 201100
TAFGDV
TAF
KGDV 201129Z 2012/2112 29011KT P6SM SKC
     FM201500 31022KT P6SM FEW250
     FM210300 31008KT P6SM FEW250
      AMD LTD TO CLD VIS AND WIND=



000
FTUS45 KGGW 201100
TAFOLF
TAF
KOLF 201129Z 2012/2112 25009KT P6SM SCT080 WS010/31035KT
     FM201500 31020KT P6SM SCT200
     FM210300 VRB05KT P6SM FEW250=



000
FTUS45 KGGW 201100
TAFGGW
TAF
KGGW 201129Z 2012/2112 30010KT P6SM SCT080 WS008/31035KT
     FM201500 32018KT P6SM FEW200
     FM210300 VRB06KT P6SM FEW200=



000
FTUS45 KGGW 201100
TAFOLF
TAF
KOLF 201129Z 2012/2112 25009KT P6SM SCT080 WS010/31035KT
     FM201500 31020KT P6SM SCT200
     FM210300 VRB05KT P6SM FEW250=



000
FTUS45 KGGW 201100
TAFSDY
TAF
KSDY 201129Z 2012/2112 26008KT P6SM SCT080
     FM201500 31022KT P6SM FEW200
     FM210300 31007KT P6SM FEW250
      AMD LTD TO CLD VIS AND WIND=



000
FTUS45 KGGW 201100
TAFGDV
TAF
KGDV 201129Z 2012/2112 29011KT P6SM SKC
     FM201500 31022KT P6SM FEW250
     FM210300 31008KT P6SM FEW250
      AMD LTD TO CLD VIS AND WIND=



000
FTUS45 KGGW 200500
TAFGDV
TAF
KGDV 200520Z 2006/2106 29008KT P6SM SCT250
     FM201500 31016KT P6SM FEW250
     FM210300 31008KT P6SM FEW250
      AMD LTD TO CLD VIS AND WIND=



000
FTUS45 KGGW 200500
TAFGDV
TAF
KGDV 200520Z 2006/2106 29008KT P6SM SCT250
     FM201500 31016KT P6SM FEW250
     FM210300 31008KT P6SM FEW250
      AMD LTD TO CLD VIS AND WIND=



000
FTUS45 KGGW 200500
TAFOLF
TAF
KOLF 200520Z 2006/2106 VRB06KT P6SM SCT090
     FM201500 31012KT P6SM SCT230
     FM210300 31007KT P6SM FEW250=



000
FTUS45 KGGW 200500
TAFOLF
TAF
KOLF 200520Z 2006/2106 VRB06KT P6SM SCT090
     FM201500 31012KT P6SM SCT230
     FM210300 31007KT P6SM FEW250=



000
FTUS45 KGGW 200500
TAFSDY
TAF
KSDY 200520Z 2006/2106 28008KT P6SM SCT130
     FM201500 31014KT P6SM FEW090
     FM210300 31007KT P6SM FEW250
      AMD LTD TO CLD VIS AND WIND=



000
FTUS45 KGGW 200500
TAFGGW
TAF
KGGW 200520Z 2006/2106 VRB06KT P6SM SCT090
     FM201500 32012KT P6SM FEW250
     FM210300 VRB06KT P6SM FEW250=



000
FTUS45 KGGW 200000 AAA
TAFGGW
TAF AMD
KGGW 200047Z 2001/2024 30007KT P6SM SCT070
     FM201500 32012KT P6SM FEW080=



000
FTUS45 KGGW 192300
TAFGGW
TAF
KGGW 192337Z 2000/2024 31012KT P6SM SCT070
     FM200300 30007KT P6SM SCT070
     FM201500 32012KT P6SM FEW080=



000
FTUS45 KGGW 192300
TAFOLF
TAF
KOLF 192337Z 2000/2024 31012KT P6SM SCT060
     FM200300 29007KT P6SM SCT080
     FM201500 31012KT P6SM SCT070=



000
FTUS45 KGGW 192300
TAFSDY
TAF
KSDY 192337Z 2000/2024 31014KT P6SM SCT070
     FM200300 29009KT P6SM SCT060
     FM201500 31014KT P6SM SCT045
     FM202100 31018G26KT P6SM FEW200
      AMD LTD TO CLD VIS AND WIND=



000
FTUS45 KGGW 192300
TAFGDV
TAF
KGDV 192337Z 2000/2024 30015KT P6SM SCT070
     FM200300 30009KT P6SM SCT070
     FM201500 31016KT P6SM SCT080
      AMD LTD TO CLD VIS AND WIND=



000
FTUS45 KGGW 192300
TAFGDV
TAF
KGDV 192337Z 2000/2024 30015KT P6SM SCT070
     FM200300 30009KT P6SM SCT070
     FM201500 31016KT P6SM SCT080
      AMD LTD TO CLD VIS AND WIND=



000
FTUS45 KGGW 192300
TAFOLF
TAF
KOLF 192337Z 2000/2024 31012KT P6SM SCT060
     FM200300 29007KT P6SM SCT080
     FM201500 31012KT P6SM SCT070=



000
FTUS45 KGGW 191700
TAFGDV
TAF
KGDV 191739Z 1918/2018 28017G23KT P6SM SCT140
     FM200200 29009KT P6SM SCT100
     FM201300 32016G22KT P6SM SKC
      AMD LTD TO CLD VIS AND WIND=



000
FTUS45 KGGW 191700
TAFOLF
TAF
KOLF 191739Z 1918/2018 28016G24KT P6SM SCT140
     FM200200 28005KT P6SM SCT100
     FM201500 31013KT P6SM SKC=



000
FTUS45 KGGW 191700
TAFGDV
TAF
KGDV 191739Z 1918/2018 28017G23KT P6SM SCT140
     FM200200 29009KT P6SM SCT100
     FM201300 32016G22KT P6SM SKC
      AMD LTD TO CLD VIS AND WIND=



000
FTUS45 KGGW 191700
TAFSDY
TAF
KSDY 191739Z 1918/2018 25016G24KT P6SM SCT140
     FM200200 29007KT P6SM SCT100
     FM201400 31014G21KT P6SM SKC
      AMD LTD TO CLD VIS AND WIND=



000
FTUS45 KGGW 191700
TAFGGW
TAF
KGGW 191739Z 1918/2018 30017KT P6SM SCT140
     FM200200 29007KT P6SM SCT100
     FM201400 32013KT P6SM SKC=



000
FTUS45 KGGW 191700
TAFOLF
TAF
KOLF 191739Z 1918/2018 28016G24KT P6SM SCT140
     FM200200 28005KT P6SM SCT100
     FM201500 31013KT P6SM SKC=



000
FTUS45 KGGW 191100
TAFGDV
TAF
KGDV 191123Z 1912/2012 28010KT P6SM SCT110
     FM191500 29018KT P6SM BKN100
     FM200200 32010KT P6SM SCT100
      AMD LTD TO CLD VIS AND WIND=



000
FTUS45 KGGW 191100
TAFSDY
TAF
KSDY 191123Z 1912/2012 27011KT P6SM SCT120
     FM191600 28011KT P6SM BKN100
     FM191900 30017KT P6SM BKN080
     FM200200 29009KT P6SM SCT100
      AMD LTD TO CLD VIS AND WIND=



000
FTUS45 KGGW 191100
TAFGGW
TAF
KGGW 191123Z 1912/2012 27007KT P6SM SCT100
     FM191500 30015KT P6SM SCT080
     FM200200 VRB06KT P6SM SCT100
     FM200800 30009KT P6SM SCT080=



000
FTUS45 KGGW 191100
TAFOLF
TAF
KOLF 191123Z 1912/2012 25009KT P6SM SCT100
     FM191400 28012KT P6SM SCT100
     FM191800 30016KT P6SM BKN070
     FM200200 VRB04KT P6SM SCT100=



000
FTUS45 KGGW 191100
TAFGDV
TAF
KGDV 191123Z 1912/2012 28010KT P6SM SCT110
     FM191500 29018KT P6SM BKN100
     FM200200 32010KT P6SM SCT100
      AMD LTD TO CLD VIS AND WIND=



000
FTUS45 KGGW 191100
TAFOLF
TAF
KOLF 191123Z 1912/2012 25009KT P6SM SCT100
     FM191400 28012KT P6SM SCT100
     FM191800 30016KT P6SM BKN070
     FM200200 VRB04KT P6SM SCT100=



000
FTUS45 KGGW 190800 AAA
TAFGDV
TAF AMD
KGDV 190856Z 1909/2006 25015KT P6SM BKN110
     FM191500 29018KT P6SM SCT090
     FM200200 32010KT P6SM FEW120
      AMD LTD TO CLD VIS AND WIND=



000
FTUS45 KGGW 190800 AAA
TAFGDV
TAF AMD
KGDV 190856Z 1909/2006 25015KT P6SM BKN110
     FM191500 29018KT P6SM SCT090
     FM200200 32010KT P6SM FEW120
      AMD LTD TO CLD VIS AND WIND=



000
FTUS45 KGGW 190500
TAFOLF
TAF
KOLF 190524Z 1906/2006 27007KT P6SM BKN110
     FM191500 27012KT P6SM SCT110
     FM191800 30016KT P6SM -SHRA BKN080
     FM200200 VRB04KT P6SM FEW100=



000
FTUS45 KGGW 190500
TAFOLF
TAF
KOLF 190524Z 1906/2006 27007KT P6SM BKN110
     FM191500 27012KT P6SM SCT110
     FM191800 30016KT P6SM -SHRA BKN080
     FM200200 VRB04KT P6SM FEW100=



000
FTUS45 KGGW 190500
TAFSDY
TAF
KSDY 190524Z 1906/2006 27008KT P6SM BKN120
     FM191200 28011KT P6SM SCT110
     FM191900 30017KT P6SM -SHRA BKN080
     FM200200 29009KT P6SM FEW100
      AMD LTD TO CLD VIS AND WIND=



000
FTUS45 KGGW 190500
TAFGDV
TAF
KGDV 190524Z 1906/2006 25011KT P6SM BKN110
     FM191500 29018KT P6SM SCT090
     FM200200 32010KT P6SM FEW120
      AMD LTD TO CLD VIS AND WIND=



000
FTUS45 KGGW 190500
TAFGDV
TAF
KGDV 190524Z 1906/2006 25011KT P6SM BKN110
     FM191500 29018KT P6SM SCT090
     FM200200 32010KT P6SM FEW120
      AMD LTD TO CLD VIS AND WIND=



000
FTUS45 KGGW 190500
TAFGGW
TAF
KGGW 190524Z 1906/2006 27007KT P6SM SCT080 BKN100
     FM191500 30013KT P6SM SCT080
     FM200200 VRB06KT P6SM FEW100=



000
FTUS45 KGGW 182300
TAFSDY
TAF
KSDY 182320Z 1900/1924 VRB06KT P6SM VCSH BKN120
     FM191200 28011KT P6SM SCT110
     FM191800 28019KT P6SM SCT100
      AMD LTD TO CLD VIS AND WIND=



000
FTUS45 KGGW 182300
TAFGDV
TAF
KGDV 182320Z 1900/1924 VRB03KT P6SM VCSH BKN110CB
     FM190300 24007KT P6SM VCTS BKN110CB
     FM191200 28009KT P6SM SCT110
     FM191500 29015KT P6SM SCT090
      AMD LTD TO CLD VIS AND WIND=



000
FTUS45 KGGW 182300
TAFGGW
TAF
KGGW 182320Z 1900/1924 VRB06KT P6SM SCT120
     FM191500 29013KT P6SM FEW130=



000
FTUS45 KGGW 182300
TAFOLF
TAF
KOLF 182320Z 1900/1924 24008KT P6SM BKN110
     FM190600 VRB06KT P6SM VCSH SCT100
     FM191500 27012KT P6SM SCT110=



000
FTUS45 KGGW 182300
TAFGDV
TAF
KGDV 182320Z 1900/1924 VRB03KT P6SM VCSH BKN110CB
     FM190300 24007KT P6SM VCTS BKN110CB
     FM191200 28009KT P6SM SCT110
     FM191500 29015KT P6SM SCT090
      AMD LTD TO CLD VIS AND WIND=



000
FTUS45 KGGW 182300
TAFOLF
TAF
KOLF 182320Z 1900/1924 24008KT P6SM BKN110
     FM190600 VRB06KT P6SM VCSH SCT100
     FM191500 27012KT P6SM SCT110=



000
FTUS45 KGGW 181700
TAFGGW
TAF
KGGW 181720Z 1818/1918 25008KT P6SM BKN130
     FM190600 VRB05KT P6SM SCT090
     FM191500 29013KT P6SM SCT140=



000
FTUS45 KGGW 181700
TAFGDV
TAF
KGDV 181720Z 1818/1918 20012KT P6SM SCT110
     FM182100 20012KT P6SM VCSH BKN110
     FM190000 24007KT P6SM VCSH BKN110
     FM191500 28013KT P6SM SCT090
      AMD LTD TO CLD VIS AND WIND=



000
FTUS45 KGGW 181700
TAFSDY
TAF
KSDY 181720Z 1818/1918 19011KT P6SM SCT140
     FM190000 24008KT P6SM BKN120
     FM191200 27009KT P6SM SCT110
     FM191500 28014KT P6SM SCT100
      AMD LTD TO CLD VIS AND WIND=



000
FTUS45 KGGW 181700
TAFOLF
TAF
KOLF 181720Z 1818/1918 21009KT P6SM SCT130
     FM190000 25007KT P6SM BKN110
     FM190600 VRB06KT P6SM SCT100
     FM191500 28013KT P6SM SCT120=



000
FTUS45 KGGW 181700
TAFGDV
TAF
KGDV 181720Z 1818/1918 20012KT P6SM SCT110
     FM182100 20012KT P6SM VCSH BKN110
     FM190000 24007KT P6SM VCSH BKN110
     FM191500 28013KT P6SM SCT090
      AMD LTD TO CLD VIS AND WIND=



000
FTUS45 KGGW 181700
TAFOLF
TAF
KOLF 181720Z 1818/1918 21009KT P6SM SCT130
     FM190000 25007KT P6SM BKN110
     FM190600 VRB06KT P6SM SCT100
     FM191500 28013KT P6SM SCT120=



000
FTUS45 KGGW 181100
TAFOLF
TAF
KOLF 181127Z 1812/1912 09005KT P6SM SCT200
     FM181900 24013KT P6SM SCT100 BKN200
     FM190200 25006KT P6SM SCT150=



000
FTUS45 KGGW 181100
TAFGGW
TAF
KGGW 181127Z 1812/1912 12011KT P6SM SCT200
     FM181700 20009KT P6SM BKN200
     FM181900 23013KT P6SM SCT100 BKN200
     FM190500 26007KT P6SM SCT150=



000
FTUS45 KGGW 181100
TAFSDY
TAF
KSDY 181127Z 1812/1912 17004KT P6SM SCT200
     FM181900 22014KT P6SM SCT100 BKN200
     FM190300 26007KT P6SM SCT120 BKN250
      AMD LTD TO CLD VIS AND WIND=



000
FTUS45 KGGW 181100
TAFGDV
TAF
KGDV 181127Z 1812/1912 17006KT P6SM SCT200
     FM181900 23014KT P6SM SCT100 BKN200
     FM190300 27007KT P6SM BKN150
      AMD LTD TO CLD VIS AND WIND=



000
FTUS45 KGGW 180500
TAFGDV
TAF
KGDV 180521Z 1806/1906 14006KT P6SM SCT120 BKN200
     FM181900 23012G18KT P6SM VCSH SCT120 BKN200
     FM182300 27007KT P6SM VCSH BKN150
      AMD LTD TO CLD VIS AND WIND=



000
FTUS45 KGGW 180500
TAFSDY
TAF
KSDY 180521Z 1806/1906 17004KT P6SM SCT120 BKN250
     FM181900 20011G17KT P6SM VCSH SCT110 BKN200
     FM182300 26007KT P6SM VCSH SCT120 BKN250
      AMD LTD TO CLD VIS AND WIND=



000
FTUS45 KGGW 180500
TAFGGW
TAF
KGGW 180521Z 1806/1906 11013KT P6SM SCT150 BKN250
     FM181500 20008KT P6SM FEW150 SCT300
     FM181900 23013G19KT P6SM SCT120 BKN200
     FM190000 18007KT P6SM SKC=



000
FTUS45 KGGW 180500
TAFOLF
TAF
KOLF 180521Z 1806/1906 09005KT P6SM FEW150 SCT250
     FM181900 24011G17KT P6SM SCT150 BKN200
     FM182300 25006KT P6SM FEW150 SCT300=



000
FTUS45 KGGW 180500
TAFGDV
TAF
KGDV 180521Z 1806/1906 14006KT P6SM SCT120 BKN200
     FM181900 23012G18KT P6SM VCSH SCT120 BKN200
     FM182300 27007KT P6SM VCSH BKN150
      AMD LTD TO CLD VIS AND WIND=



000
FTUS45 KGGW 180500
TAFOLF
TAF
KOLF 180521Z 1806/1906 09005KT P6SM FEW150 SCT250
     FM181900 24011G17KT P6SM SCT150 BKN200
     FM182300 25006KT P6SM FEW150 SCT300=



000
FTUS45 KGGW 172300
TAFOLF
TAF
KOLF 172320Z 1800/1824 11008KT P6SM SCT140
     FM181200 VRB04KT 6SM BR SCT025 SCT140
     FM181500 VRB03KT P6SM SCT140
     FM181800 22008KT P6SM BKN130=



000
FTUS45 KGGW 172300
TAFGGW
TAF
KGGW 172320Z 1800/1824 12009KT P6SM SCT180
     FM181500 VRB05KT P6SM SCT140
     FM181800 23007KT P6SM BKN130=



000
FTUS45 KGGW 172300
TAFGDV
TAF
KGDV 172320Z 1800/1824 10009KT P6SM SCT140
     FM180600 VRB05KT P6SM SCT120
     FM181800 20012KT P6SM SCT140
      AMD LTD TO CLD VIS AND WIND=



000
FTUS45 KGGW 172300
TAFGDV
TAF
KGDV 172320Z 1800/1824 10009KT P6SM SCT140
     FM180600 VRB05KT P6SM SCT120
     FM181800 20012KT P6SM SCT140
      AMD LTD TO CLD VIS AND WIND=



000
FTUS45 KGGW 172300
TAFOLF
TAF
KOLF 172320Z 1800/1824 11008KT P6SM SCT140
     FM181200 VRB04KT 6SM BR SCT025 SCT140
     FM181500 VRB03KT P6SM SCT140
     FM181800 22008KT P6SM BKN130=



000
FTUS45 KGGW 172300
TAFSDY
TAF
KSDY 172320Z 1800/1824 12009KT P6SM SCT130
     FM181500 18009KT P6SM SCT130
     FM182100 23013KT P6SM SCT130
      AMD LTD TO CLD VIS AND WIND=



    US Dept of Commerce
    National Oceanic and Atmospheric Administration
    National Weather Service
    1325 East West Highway
    Silver Spring, MD 20910
    Page Author: NWS Internet Services Team
Disclaimer
Information Quality
Credits
Glossary
Privacy Policy
Freedom of Information Act (FOIA)
About Us
Career Opportunities